Hatfield, AR

8:22 AM CDT on October 01, 2014 (GMT -0500)
Mena | Change Station
CLOSE
Current Station
Airport
Location: Mena,
Elevation: 1079 ft
Nearby Weather Stations

Elev 1079 ft 34.55 °N, 94.20 °W | Updated 27 minutes ago

Mostly Cloudy
Mostly Cloudy
66 °F
Feels Like 66 °F
N
0
Wind Variable Wind from North

Today
High -- | Low -- °F
--% Chance of Precip.
Yesterday
High -- | Low -- °F
Precip. -- in
7:12 AM 7:01 PM
Waxing Crescent, 47% visible
Pressure 29.88 in
Visibility 5.0 miles
Clouds Mostly Cloudy 1300 ft
Mostly Cloudy 3100 ft
Mostly Cloudy 4000 ft
Dew Point 64 °F
Humidity 94%
Rainfall 0.00 in
Snow Depth Not available.
UV 0 out of 12
Pollen 9.00 out of 12
Air Quality Not available.
Flu Activity Not available.
METAR KMEZ 011255Z AUTO 00000KT 5SM BKN013 BKN031 BKN040 19/18 A2988 RMK AO2

More Conditions Fewer Conditions

Pressure 29.88 in
Visibility 5.0 miles
Clouds Mostly Cloudy 1300 ft
Mostly Cloudy 3100 ft
Mostly Cloudy 4000 ft
Dew Point 64 °F
Humidity 94%
Rainfall 0.00 in
Snow Depth Not available.
UV 0 out of 12
Pollen 9.00 out of 12
Air Quality Not available.
Flu Activity Not available.
METAR KMEZ 011255Z AUTO 00000KT 5SM BKN013 BKN031 BKN040 19/18 A2988 RMK AO2

More Conditions Fewer Conditions

10-Day Weather Forecast

Almanac

Astronomy

Oct. 01, 2014 Rise Set
Actual Time 7:12 AM CDT 7:01 PM CDT
Civil Twilight 6:46 AM CDT 7:26 PM CDT
Nautical Twilight 6:17 AM CDT 7:55 PM CDT
Astronomical Twilight 5:48 AM CDT 8:24 PM CDT
Moon 2:03 PM CDT No Moon Set
Length of Visible Light 12h 39m
Length of Day
11h 49m
Tomorrow will be 2m 8s shorter.
Waxing Crescent, 47% of the Moon is Illuminated
Today
Waxing Crescent
Oct 1
First Quarter
Oct 8
Full
Oct 15
Last Quarter
Oct 23
New

Today's Extremes

State Highs State Lows

Community

WunderPhotos

Upload Photos

1,757,929 photos uploaded!

Nearby

Snow Depth

Station Depth Elevation
No new snow has been reported.

Earthquake Activity

City Distance Mag. Time & Date
No recent earthquake activity has been reported nearby.
Minimum magnitude displayed is 2.5.

Coastal Water Temperatures

Place Temperature
No Stations Reporting

Nearby Weather Stations